Annapolis, Indiana
Current Conditions -  °F | °C
As of 5:55 AM on Monday 22 Dec 2014 (Local Time) from KPRG Reporting Station
Overcast Overcast  
Wind Chill: 27°   Ceiling: 5500
Heat Index: 33°   Visibility: 10mi
Dew Point: 30°   Wind: 7mph
Humidity: 90%   Direction: 100°E
Pressure: 29.94"   Gusts: NA
Location:  39.8468°N, 87.2662°W
Report Text: KPRG 221055Z AUTO 10006KT 10SM SCT048 OVC055 01/M01 A2994 RMK AO2 T00051010
Loading
Personal Weather Stations






























Interactive Weather Map New forecast layout! Learn more

10-Day Weather Forecast

Advertisements
Track Severe Weather on mobile